Terminal Aerodrome Forecast
Issued by NWS

Home | Current Version | Previous Version | Text Only | Print | Product List | Glossary On
Versions: 1 2 3 4 5 6 7 8 9 10 11 12 13 14 15 16 17 18 19 20 21 22 23 24 25 26 27 28 29 30 31
000
FTAK31 PANC 201419 AAA
TAFAIL
TAF AMD
PAIL 201419Z 2014/2112 24005KT 3SM -SHSN OVC035
     FM201800 29004KT 4SM -SHSN BKN020
     FM210100 30004KT 5SM -SHSN BKN030=

USA.gov is the U.S. government's official web portal to all federal, state and local government web resources and services.